sensor_id;sensor_type;location;lat;lon;timestamp;temperature;humidity
41628;DHT22;27321;50.816;6.054;2023-04-30T00:02:59;11.80;70.00
41628;DHT22;27321;50.816;6.054;2023-04-30T00:06:00;11.80;70.00
41628;DHT22;27321;50.816;6.054;2023-04-30T00:09:01;11.70;70.00
41628;DHT22;27321;50.816;6.054;2023-04-30T00:12:03;11.70;69.80
41628;DHT22;27321;50.816;6.054;2023-04-30T00:15:04;11.60;69.30
41628;DHT22;27321;50.816;6.054;2023-04-30T00:18:06;11.60;69.40
41628;DHT22;27321;50.816;6.054;2023-04-30T00:21:07;11.60;69.50
41628;DHT22;27321;50.816;6.054;2023-04-30T00:24:08;11.50;69.90
41628;DHT22;27321;50.816;6.054;2023-04-30T00:27:09;11.50;69.60
41628;DHT22;27321;50.816;6.054;2023-04-30T00:30:10;11.50;69.80
41628;DHT22;27321;50.816;6.054;2023-04-30T00:33:12;11.40;69.40
41628;DHT22;27321;50.816;6.054;2023-04-30T00:36:13;11.40;69.30
41628;DHT22;27321;50.816;6.054;2023-04-30T00:39:13;11.40;69.30
41628;DHT22;27321;50.816;6.054;2023-04-30T00:42:16;11.40;69.20
41628;DHT22;27321;50.816;6.054;2023-04-30T00:45:17;11.40;69.20
41628;DHT22;27321;50.816;6.054;2023-04-30T00:48:21;11.30;68.80
41628;DHT22;27321;50.816;6.054;2023-04-30T00:51:22;11.30;68.90
41628;DHT22;27321;50.816;6.054;2023-04-30T00:54:24;11.30;68.60
41628;DHT22;27321;50.816;6.054;2023-04-30T00:57:25;11.30;68.50
41628;DHT22;27321;50.816;6.054;2023-04-30T01:00:27;11.30;68.60
41628;DHT22;27321;50.816;6.054;2023-04-30T01:03:28;11.20;68.50
41628;DHT22;27321;50.816;6.054;2023-04-30T01:06:29;11.20;68.10
41628;DHT22;27321;50.816;6.054;2023-04-30T01:09:31;11.10;68.10
41628;DHT22;27321;50.816;6.054;2023-04-30T01:12:36;11.10;68.30
41628;DHT22;27321;50.816;6.054;2023-04-30T01:15:46;11.10;68.40
41628;DHT22;27321;50.816;6.054;2023-04-30T01:28:37;11.00;68.10
41628;DHT22;27321;50.816;6.054;2023-04-30T01:31:42;11.00;68.00
41628;DHT22;27321;50.816;6.054;2023-04-30T01:34:44;11.00;67.80
41628;DHT22;27321;50.816;6.054;2023-04-30T01:38:31;10.90;68.00
41628;DHT22;27321;50.816;6.054;2023-04-30T01:48:42;10.70;68.10
41628;DHT22;27321;50.816;6.054;2023-04-30T01:56:01;10.70;67.60
41628;DHT22;27321;50.816;6.054;2023-04-30T01:59:04;10.60;68.00
41628;DHT22;27321;50.816;6.054;2023-04-30T02:02:05;10.60;68.20
41628;DHT22;27321;50.816;6.054;2023-04-30T02:05:06;10.60;67.80
41628;DHT22;27321;50.816;6.054;2023-04-30T02:08:08;10.60;67.80
41628;DHT22;27321;50.816;6.054;2023-04-30T02:11:08;10.50;67.70
41628;DHT22;27321;50.816;6.054;2023-04-30T02:14:10;10.50;67.60
41628;DHT22;27321;50.816;6.054;2023-04-30T02:17:11;10.50;67.70
41628;DHT22;27321;50.816;6.054;2023-04-30T02:20:12;10.40;68.10
41628;DHT22;27321;50.816;6.054;2023-04-30T02:23:14;10.40;68.00
41628;DHT22;27321;50.816;6.054;2023-04-30T02:26:15;10.50;67.90
41628;DHT22;27321;50.816;6.054;2023-04-30T02:29:16;10.40;67.60
41628;DHT22;27321;50.816;6.054;2023-04-30T02:32:17;10.40;68.40
41628;DHT22;27321;50.816;6.054;2023-04-30T02:35:18;10.30;68.20
41628;DHT22;27321;50.816;6.054;2023-04-30T02:38:20;10.30;68.10
41628;DHT22;27321;50.816;6.054;2023-04-30T02:41:22;10.30;68.00
41628;DHT22;27321;50.816;6.054;2023-04-30T02:44:23;10.20;68.00
41628;DHT22;27321;50.816;6.054;2023-04-30T02:47:23;10.20;68.30
41628;DHT22;27321;50.816;6.054;2023-04-30T02:50:25;10.20;68.40
41628;DHT22;27321;50.816;6.054;2023-04-30T02:53:25;10.20;68.30
41628;DHT22;27321;50.816;6.054;2023-04-30T02:56:26;10.20;68.20
41628;DHT22;27321;50.816;6.054;2023-04-30T02:59:28;10.20;67.90
41628;DHT22;27321;50.816;6.054;2023-04-30T03:02:29;10.20;68.00
41628;DHT22;27321;50.816;6.054;2023-04-30T03:05:30;10.10;67.90
41628;DHT22;27321;50.816;6.054;2023-04-30T03:08:31;10.10;67.90
41628;DHT22;27321;50.816;6.054;2023-04-30T03:11:32;10.10;67.80
41628;DHT22;27321;50.816;6.054;2023-04-30T03:14:36;10.00;67.90
41628;DHT22;27321;50.816;6.054;2023-04-30T03:17:37;9.90;68.10
41628;DHT22;27321;50.816;6.054;2023-04-30T03:20:38;9.90;68.40
41628;DHT22;27321;50.816;6.054;2023-04-30T03:23:39;9.90;68.60
41628;DHT22;27321;50.816;6.054;2023-04-30T03:26:40;9.90;68.60
41628;DHT22;27321;50.816;6.054;2023-04-30T03:29:42;9.90;68.40
41628;DHT22;27321;50.816;6.054;2023-04-30T03:32:43;9.80;68.70
41628;DHT22;27321;50.816;6.054;2023-04-30T03:35:44;9.80;68.70
41628;DHT22;27321;50.816;6.054;2023-04-30T03:38:45;9.80;68.90
41628;DHT22;27321;50.816;6.054;2023-04-30T03:41:46;9.80;68.70
41628;DHT22;27321;50.816;6.054;2023-04-30T03:44:47;9.80;68.50
41628;DHT22;27321;50.816;6.054;2023-04-30T03:47:48;9.80;68.80
41628;DHT22;27321;50.816;6.054;2023-04-30T03:50:51;9.80;68.70
41628;DHT22;27321;50.816;6.054;2023-04-30T03:53:51;9.80;68.50
41628;DHT22;27321;50.816;6.054;2023-04-30T03:56:52;9.80;68.70
41628;DHT22;27321;50.816;6.054;2023-04-30T03:59:54;9.80;68.60
41628;DHT22;27321;50.816;6.054;2023-04-30T04:02:57;9.70;68.70
41628;DHT22;27321;50.816;6.054;2023-04-30T04:05:58;9.70;68.70
41628;DHT22;27321;50.816;6.054;2023-04-30T04:09:00;9.60;68.90
41628;DHT22;27321;50.816;6.054;2023-04-30T04:12:01;9.60;68.90
41628;DHT22;27321;50.816;6.054;2023-04-30T04:15:02;9.60;68.60
41628;DHT22;27321;50.816;6.054;2023-04-30T04:18:04;9.70;68.20
41628;DHT22;27321;50.816;6.054;2023-04-30T04:21:07;9.60;68.70
41628;DHT22;27321;50.816;6.054;2023-04-30T04:24:08;9.60;69.20
41628;DHT22;27321;50.816;6.054;2023-04-30T04:27:10;9.50;69.60
41628;DHT22;27321;50.816;6.054;2023-04-30T04:30:11;9.50;69.60
41628;DHT22;27321;50.816;6.054;2023-04-30T04:33:14;9.50;69.30
41628;DHT22;27321;50.816;6.054;2023-04-30T04:36:15;9.50;69.60
41628;DHT22;27321;50.816;6.054;2023-04-30T04:39:16;9.40;70.10
41628;DHT22;27321;50.816;6.054;2023-04-30T04:42:17;9.40;70.20
41628;DHT22;27321;50.816;6.054;2023-04-30T04:45:19;9.50;70.30
41628;DHT22;27321;50.816;6.054;2023-04-30T04:48:21;9.60;69.70
41628;DHT22;27321;50.816;6.054;2023-04-30T04:51:23;9.60;69.40
41628;DHT22;27321;50.816;6.054;2023-04-30T04:54:24;9.60;69.10
41628;DHT22;27321;50.816;6.054;2023-04-30T04:57:25;9.60;69.20
41628;DHT22;27321;50.816;6.054;2023-04-30T05:00:27;9.60;68.80
41628;DHT22;27321;50.816;6.054;2023-04-30T05:03:29;9.60;69.30
41628;DHT22;27321;50.816;6.054;2023-04-30T05:06:31;9.70;69.30
41628;DHT22;27321;50.816;6.054;2023-04-30T05:09:35;9.80;68.90
41628;DHT22;27321;50.816;6.054;2023-04-30T05:12:36;9.80;69.10
41628;DHT22;27321;50.816;6.054;2023-04-30T05:15:37;9.80;68.90
41628;DHT22;27321;50.816;6.054;2023-04-30T05:18:38;9.90;68.90
41628;DHT22;27321;50.816;6.054;2023-04-30T05:21:39;10.00;68.90
41628;DHT22;27321;50.816;6.054;2023-04-30T05:24:40;9.90;68.80
41628;DHT22;27321;50.816;6.054;2023-04-30T05:27:41;9.90;70.00
41628;DHT22;27321;50.816;6.054;2023-04-30T05:30:42;9.90;70.40
41628;DHT22;27321;50.816;6.054;2023-04-30T05:33:43;9.90;70.70
41628;DHT22;27321;50.816;6.054;2023-04-30T05:36:44;9.90;71.20
41628;DHT22;27321;50.816;6.054;2023-04-30T05:39:45;10.00;71.30
41628;DHT22;27321;50.816;6.054;2023-04-30T05:42:46;10.00;71.70
41628;DHT22;27321;50.816;6.054;2023-04-30T05:45:47;10.10;71.80
41628;DHT22;27321;50.816;6.054;2023-04-30T05:48:48;10.20;72.20
41628;DHT22;27321;50.816;6.054;2023-04-30T05:51:49;10.20;72.00
41628;DHT22;27321;50.816;6.054;2023-04-30T05:54:50;10.30;72.60
41628;DHT22;27321;50.816;6.054;2023-04-30T05:57:51;10.30;72.50
41628;DHT22;27321;50.816;6.054;2023-04-30T06:00:52;10.40;72.60
41628;DHT22;27321;50.816;6.054;2023-04-30T06:03:53;10.50;72.50
41628;DHT22;27321;50.816;6.054;2023-04-30T06:06:54;10.60;72.20
41628;DHT22;27321;50.816;6.054;2023-04-30T06:09:55;10.60;72.40
41628;DHT22;27321;50.816;6.054;2023-04-30T06:12:56;10.70;72.70
41628;DHT22;27321;50.816;6.054;2023-04-30T06:15:57;10.80;72.60
41628;DHT22;27321;50.816;6.054;2023-04-30T06:18:58;10.80;72.70
41628;DHT22;27321;50.816;6.054;2023-04-30T06:21:59;10.80;72.60
41628;DHT22;27321;50.816;6.054;2023-04-30T06:25:01;10.90;72.80
41628;DHT22;27321;50.816;6.054;2023-04-30T06:28:03;10.90;72.50
41628;DHT22;27321;50.816;6.054;2023-04-30T06:31:04;11.00;72.30
41628;DHT22;27321;50.816;6.054;2023-04-30T06:34:05;11.10;72.20
41628;DHT22;27321;50.816;6.054;2023-04-30T06:37:06;11.20;72.60
41628;DHT22;27321;50.816;6.054;2023-04-30T06:40:07;11.30;72.50
41628;DHT22;27321;50.816;6.054;2023-04-30T06:43:08;11.20;72.30
41628;DHT22;27321;50.816;6.054;2023-04-30T06:46:09;11.20;72.70
41628;DHT22;27321;50.816;6.054;2023-04-30T06:49:10;11.30;72.80
41628;DHT22;27321;50.816;6.054;2023-04-30T06:52:11;11.40;71.90
41628;DHT22;27321;50.816;6.054;2023-04-30T06:55:12;11.30;72.60
41628;DHT22;27321;50.816;6.054;2023-04-30T06:58:13;11.30;72.40
41628;DHT22;27321;50.816;6.054;2023-04-30T07:01:14;11.40;72.90
41628;DHT22;27321;50.816;6.054;2023-04-30T07:04:15;11.50;72.80
41628;DHT22;27321;50.816;6.054;2023-04-30T07:07:16;11.60;72.80
41628;DHT22;27321;50.816;6.054;2023-04-30T07:10:17;11.50;73.30
41628;DHT22;27321;50.816;6.054;2023-04-30T07:13:18;11.50;73.40
41628;DHT22;27321;50.816;6.054;2023-04-30T07:16:19;11.50;73.50
41628;DHT22;27321;50.816;6.054;2023-04-30T07:19:21;11.60;73.70
41628;DHT22;27321;50.816;6.054;2023-04-30T07:22:24;11.70;74.10
41628;DHT22;27321;50.816;6.054;2023-04-30T07:25:25;11.90;73.70
41628;DHT22;27321;50.816;6.054;2023-04-30T07:28:26;12.00;73.30
41628;DHT22;27321;50.816;6.054;2023-04-30T07:31:27;12.10;73.30
41628;DHT22;27321;50.816;6.054;2023-04-30T07:34:28;12.10;73.40
41628;DHT22;27321;50.816;6.054;2023-04-30T07:37:29;12.10;73.10
41628;DHT22;27321;50.816;6.054;2023-04-30T07:40:31;12.20;73.40
41628;DHT22;27321;50.816;6.054;2023-04-30T07:43:32;12.20;72.90
41628;DHT22;27321;50.816;6.054;2023-04-30T07:46:32;12.20;73.10
41628;DHT22;27321;50.816;6.054;2023-04-30T07:49:34;12.30;72.90
41628;DHT22;27321;50.816;6.054;2023-04-30T07:52:35;12.30;73.00
41628;DHT22;27321;50.816;6.054;2023-04-30T07:55:36;12.40;72.80
41628;DHT22;27321;50.816;6.054;2023-04-30T07:58:37;12.40;72.30
41628;DHT22;27321;50.816;6.054;2023-04-30T08:01:39;12.50;72.70
41628;DHT22;27321;50.816;6.054;2023-04-30T08:04:40;12.60;72.00
41628;DHT22;27321;50.816;6.054;2023-04-30T08:07:41;12.70;71.80
41628;DHT22;27321;50.816;6.054;2023-04-30T08:10:43;12.70;71.20
41628;DHT22;27321;50.816;6.054;2023-04-30T08:13:45;12.80;71.80
41628;DHT22;27321;50.816;6.054;2023-04-30T08:16:46;12.90;70.70
41628;DHT22;27321;50.816;6.054;2023-04-30T08:19:47;13.00;69.90
41628;DHT22;27321;50.816;6.054;2023-04-30T08:22:48;13.00;69.60
41628;DHT22;27321;50.816;6.054;2023-04-30T08:25:49;13.10;69.20
41628;DHT22;27321;50.816;6.054;2023-04-30T08:28:51;13.20;68.80
41628;DHT22;27321;50.816;6.054;2023-04-30T08:31:55;13.30;68.60
41628;DHT22;27321;50.816;6.054;2023-04-30T08:34:58;13.30;68.10
41628;DHT22;27321;50.816;6.054;2023-04-30T08:37:59;13.40;66.40
41628;DHT22;27321;50.816;6.054;2023-04-30T08:41:11;13.50;65.90
41628;DHT22;27321;50.816;6.054;2023-04-30T08:44:13;13.60;66.60
41628;DHT22;27321;50.816;6.054;2023-04-30T08:47:16;13.60;65.70
41628;DHT22;27321;50.816;6.054;2023-04-30T08:50:17;13.60;63.30
41628;DHT22;27321;50.816;6.054;2023-04-30T08:53:20;13.70;63.30
41628;DHT22;27321;50.816;6.054;2023-04-30T08:56:22;13.70;63.50
41628;DHT22;27321;50.816;6.054;2023-04-30T08:59:23;13.80;63.30
41628;DHT22;27321;50.816;6.054;2023-04-30T09:02:25;13.90;63.60
41628;DHT22;27321;50.816;6.054;2023-04-30T09:05:25;14.10;61.80
41628;DHT22;27321;50.816;6.054;2023-04-30T09:08:49;14.10;61.30
41628;DHT22;27321;50.816;6.054;2023-04-30T09:11:52;14.10;61.60
41628;DHT22;27321;50.816;6.054;2023-04-30T09:15:05;14.20;62.10
41628;DHT22;27321;50.816;6.054;2023-04-30T09:18:09;14.30;61.80
41628;DHT22;27321;50.816;6.054;2023-04-30T09:21:27;14.30;60.10
41628;DHT22;27321;50.816;6.054;2023-04-30T09:24:45;14.40;61.30
41628;DHT22;27321;50.816;6.054;2023-04-30T09:27:47;14.50;60.30
41628;DHT22;27321;50.816;6.054;2023-04-30T09:30:48;14.60;59.90
41628;DHT22;27321;50.816;6.054;2023-04-30T09:33:50;14.70;61.30
41628;DHT22;27321;50.816;6.054;2023-04-30T09:36:54;14.80;59.50
41628;DHT22;27321;50.816;6.054;2023-04-30T09:39:56;14.90;58.60
41628;DHT22;27321;50.816;6.054;2023-04-30T09:42:58;15.00;57.30
41628;DHT22;27321;50.816;6.054;2023-04-30T09:45:59;15.00;56.80
41628;DHT22;27321;50.816;6.054;2023-04-30T09:49:02;15.00;55.30
41628;DHT22;27321;50.816;6.054;2023-04-30T09:52:04;15.00;56.70
41628;DHT22;27321;50.816;6.054;2023-04-30T09:55:05;15.10;58.90
41628;DHT22;27321;50.816;6.054;2023-04-30T09:58:09;15.20;58.40
41628;DHT22;27321;50.816;6.054;2023-04-30T10:01:10;15.30;59.70
41628;DHT22;27321;50.816;6.054;2023-04-30T10:04:12;15.40;59.10
41628;DHT22;27321;50.816;6.054;2023-04-30T10:07:20;15.40;56.20
41628;DHT22;27321;50.816;6.054;2023-04-30T10:10:22;15.50;56.70
41628;DHT22;27321;50.816;6.054;2023-04-30T10:13:25;15.50;55.70
41628;DHT22;27321;50.816;6.054;2023-04-30T10:16:56;15.60;55.80
41628;DHT22;27321;50.816;6.054;2023-04-30T10:20:06;15.60;55.00
41628;DHT22;27321;50.816;6.054;2023-04-30T10:23:10;15.60;55.40
41628;DHT22;27321;50.816;6.054;2023-04-30T10:26:11;15.60;52.90
41628;DHT22;27321;50.816;6.054;2023-04-30T10:29:12;15.60;53.20
41628;DHT22;27321;50.816;6.054;2023-04-30T10:32:15;15.70;55.60
41628;DHT22;27321;50.816;6.054;2023-04-30T10:35:21;15.80;53.70
41628;DHT22;27321;50.816;6.054;2023-04-30T10:38:28;15.90;51.90
41628;DHT22;27321;50.816;6.054;2023-04-30T10:41:30;15.90;49.60
41628;DHT22;27321;50.816;6.054;2023-04-30T10:44:32;15.90;50.70
41628;DHT22;27321;50.816;6.054;2023-04-30T10:47:34;15.90;48.80
41628;DHT22;27321;50.816;6.054;2023-04-30T10:50:44;15.90;51.10
41628;DHT22;27321;50.816;6.054;2023-04-30T10:53:51;15.90;49.10
41628;DHT22;27321;50.816;6.054;2023-04-30T10:57:17;15.90;49.90
41628;DHT22;27321;50.816;6.054;2023-04-30T11:00:24;15.90;48.20
41628;DHT22;27321;50.816;6.054;2023-04-30T11:03:30;16.00;47.40
41628;DHT22;27321;50.816;6.054;2023-04-30T11:09:56;16.10;50.20
41628;DHT22;27321;50.816;6.054;2023-04-30T11:12:57;16.10;50.30
41628;DHT22;27321;50.816;6.054;2023-04-30T11:16:01;16.20;48.70
41628;DHT22;27321;50.816;6.054;2023-04-30T11:19:12;16.30;48.70
41628;DHT22;27321;50.816;6.054;2023-04-30T11:22:20;16.30;48.70
41628;DHT22;27321;50.816;6.054;2023-04-30T11:25:22;16.50;48.50
41628;DHT22;27321;50.816;6.054;2023-04-30T11:28:24;16.50;48.40
41628;DHT22;27321;50.816;6.054;2023-04-30T11:31:33;16.60;49.50
41628;DHT22;27321;50.816;6.054;2023-04-30T11:34:35;16.60;48.50
41628;DHT22;27321;50.816;6.054;2023-04-30T11:37:41;16.60;50.10
41628;DHT22;27321;50.816;6.054;2023-04-30T11:40:44;16.70;48.40
41628;DHT22;27321;50.816;6.054;2023-04-30T11:43:45;16.60;47.40
41628;DHT22;27321;50.816;6.054;2023-04-30T11:46:47;16.60;49.00
41628;DHT22;27321;50.816;6.054;2023-04-30T11:49:50;16.70;48.00
41628;DHT22;27321;50.816;6.054;2023-04-30T11:52:52;16.70;46.20
41628;DHT22;27321;50.816;6.054;2023-04-30T11:55:55;16.60;45.90
41628;DHT22;27321;50.816;6.054;2023-04-30T11:58:56;16.70;47.70
41628;DHT22;27321;50.816;6.054;2023-04-30T12:01:57;16.80;47.00
41628;DHT22;27321;50.816;6.054;2023-04-30T12:04:58;16.80;47.60
41628;DHT22;27321;50.816;6.054;2023-04-30T12:08:05;16.80;49.00
41628;DHT22;27321;50.816;6.054;2023-04-30T12:11:22;16.90;47.20
41628;DHT22;27321;50.816;6.054;2023-04-30T12:14:25;16.90;47.20
41628;DHT22;27321;50.816;6.054;2023-04-30T12:17:32;17.00;45.90
41628;DHT22;27321;50.816;6.054;2023-04-30T12:20:34;17.00;47.20
41628;DHT22;27321;50.816;6.054;2023-04-30T12:23:35;17.00;47.10
41628;DHT22;27321;50.816;6.054;2023-04-30T12:26:38;17.00;47.00
41628;DHT22;27321;50.816;6.054;2023-04-30T12:29:43;17.10;48.10
41628;DHT22;27321;50.816;6.054;2023-04-30T12:32:49;17.20;48.30
41628;DHT22;27321;50.816;6.054;2023-04-30T12:35:51;17.30;47.80
41628;DHT22;27321;50.816;6.054;2023-04-30T12:39:07;17.30;48.90
41628;DHT22;27321;50.816;6.054;2023-04-30T12:42:09;17.30;48.90
41628;DHT22;27321;50.816;6.054;2023-04-30T12:45:11;17.30;48.00
41628;DHT22;27321;50.816;6.054;2023-04-30T12:48:14;17.30;47.60
41628;DHT22;27321;50.816;6.054;2023-04-30T12:51:18;17.40;48.30
41628;DHT22;27321;50.816;6.054;2023-04-30T12:54:30;17.50;47.70
41628;DHT22;27321;50.816;6.054;2023-04-30T12:57:34;17.60;48.30
41628;DHT22;27321;50.816;6.054;2023-04-30T13:00:51;17.60;47.50
41628;DHT22;27321;50.816;6.054;2023-04-30T13:03:52;17.60;45.80
41628;DHT22;27321;50.816;6.054;2023-04-30T13:06:53;17.60;47.20
41628;DHT22;27321;50.816;6.054;2023-04-30T13:09:54;17.70;46.40
41628;DHT22;27321;50.816;6.054;2023-04-30T13:12:55;17.80;46.20
41628;DHT22;27321;50.816;6.054;2023-04-30T13:15:56;17.80;46.60
41628;DHT22;27321;50.816;6.054;2023-04-30T13:18:58;17.80;46.40
41628;DHT22;27321;50.816;6.054;2023-04-30T13:21:59;17.80;46.70
41628;DHT22;27321;50.816;6.054;2023-04-30T13:25:01;17.80;45.20
41628;DHT22;27321;50.816;6.054;2023-04-30T13:28:02;17.80;45.50
41628;DHT22;27321;50.816;6.054;2023-04-30T13:31:03;17.70;46.10
41628;DHT22;27321;50.816;6.054;2023-04-30T13:34:04;17.80;48.70
41628;DHT22;27321;50.816;6.054;2023-04-30T13:37:06;18.00;46.10
41628;DHT22;27321;50.816;6.054;2023-04-30T13:40:07;18.00;45.10
41628;DHT22;27321;50.816;6.054;2023-04-30T13:43:09;17.90;44.50
41628;DHT22;27321;50.816;6.054;2023-04-30T13:46:10;17.80;45.40
41628;DHT22;27321;50.816;6.054;2023-04-30T13:49:11;17.80;44.90
41628;DHT22;27321;50.816;6.054;2023-04-30T13:52:12;17.80;45.50
41628;DHT22;27321;50.816;6.054;2023-04-30T13:55:13;17.90;45.30
41628;DHT22;27321;50.816;6.054;2023-04-30T13:58:14;18.00;45.20
41628;DHT22;27321;50.816;6.054;2023-04-30T14:01:15;18.10;44.90
41628;DHT22;27321;50.816;6.054;2023-04-30T14:04:16;18.00;44.60
41628;DHT22;27321;50.816;6.054;2023-04-30T14:07:18;18.00;45.10
41628;DHT22;27321;50.816;6.054;2023-04-30T14:10:19;18.00;45.80
41628;DHT22;27321;50.816;6.054;2023-04-30T14:13:20;18.00;46.00
41628;DHT22;27321;50.816;6.054;2023-04-30T14:16:21;18.00;45.70
41628;DHT22;27321;50.816;6.054;2023-04-30T14:19:22;18.00;45.70
41628;DHT22;27321;50.816;6.054;2023-04-30T14:22:23;18.00;45.40
41628;DHT22;27321;50.816;6.054;2023-04-30T14:25:24;17.90;45.10
41628;DHT22;27321;50.816;6.054;2023-04-30T14:28:25;17.90;45.40
41628;DHT22;27321;50.816;6.054;2023-04-30T14:31:25;18.00;46.80
41628;DHT22;27321;50.816;6.054;2023-04-30T14:34:27;18.00;46.10
41628;DHT22;27321;50.816;6.054;2023-04-30T14:37:28;18.10;44.60
41628;DHT22;27321;50.816;6.054;2023-04-30T14:40:29;18.10;45.10
41628;DHT22;27321;50.816;6.054;2023-04-30T14:43:30;18.10;44.30
41628;DHT22;27321;50.816;6.054;2023-04-30T14:46:31;18.10;44.50
41628;DHT22;27321;50.816;6.054;2023-04-30T14:49:33;18.20;44.90
41628;DHT22;27321;50.816;6.054;2023-04-30T14:52:34;18.30;46.00
41628;DHT22;27321;50.816;6.054;2023-04-30T14:55:35;18.50;46.70
41628;DHT22;27321;50.816;6.054;2023-04-30T14:58:35;18.50;46.60
41628;DHT22;27321;50.816;6.054;2023-04-30T15:01:37;18.50;46.30
41628;DHT22;27321;50.816;6.054;2023-04-30T15:04:38;18.30;46.50
41628;DHT22;27321;50.816;6.054;2023-04-30T15:07:39;18.30;46.30
41628;DHT22;27321;50.816;6.054;2023-04-30T15:10:40;18.20;46.80
41628;DHT22;27321;50.816;6.054;2023-04-30T15:13:41;18.30;47.60
41628;DHT22;27321;50.816;6.054;2023-04-30T15:16:43;18.20;47.40
41628;DHT22;27321;50.816;6.054;2023-04-30T15:19:43;18.20;47.60
41628;DHT22;27321;50.816;6.054;2023-04-30T15:22:45;18.30;48.20
41628;DHT22;27321;50.816;6.054;2023-04-30T15:25:46;18.40;48.60
41628;DHT22;27321;50.816;6.054;2023-04-30T15:28:47;18.30;48.30
41628;DHT22;27321;50.816;6.054;2023-04-30T15:31:48;18.30;47.40
41628;DHT22;27321;50.816;6.054;2023-04-30T15:34:52;18.40;47.70
41628;DHT22;27321;50.816;6.054;2023-04-30T15:37:53;18.40;47.50
41628;DHT22;27321;50.816;6.054;2023-04-30T15:40:54;18.50;46.80
41628;DHT22;27321;50.816;6.054;2023-04-30T15:43:55;18.60;47.40
41628;DHT22;27321;50.816;6.054;2023-04-30T15:46:57;18.50;46.50
41628;DHT22;27321;50.816;6.054;2023-04-30T15:49:58;18.60;47.20
41628;DHT22;27321;50.816;6.054;2023-04-30T15:52:59;18.50;46.30
41628;DHT22;27321;50.816;6.054;2023-04-30T15:56:00;18.50;45.50
41628;DHT22;27321;50.816;6.054;2023-04-30T15:59:00;18.50;46.30
41628;DHT22;27321;50.816;6.054;2023-04-30T16:02:02;18.50;46.50
41628;DHT22;27321;50.816;6.054;2023-04-30T16:05:03;18.50;47.10
41628;DHT22;27321;50.816;6.054;2023-04-30T16:08:06;18.60;47.00
41628;DHT22;27321;50.816;6.054;2023-04-30T16:11:08;18.50;46.30
41628;DHT22;27321;50.816;6.054;2023-04-30T16:14:10;18.50;46.10
41628;DHT22;27321;50.816;6.054;2023-04-30T16:17:11;18.40;45.80
41628;DHT22;27321;50.816;6.054;2023-04-30T16:20:12;18.40;45.60
41628;DHT22;27321;50.816;6.054;2023-04-30T16:23:14;18.50;45.60
41628;DHT22;27321;50.816;6.054;2023-04-30T16:26:16;18.50;46.20
41628;DHT22;27321;50.816;6.054;2023-04-30T16:29:17;18.50;46.00
41628;DHT22;27321;50.816;6.054;2023-04-30T16:32:18;18.50;46.40
41628;DHT22;27321;50.816;6.054;2023-04-30T16:35:20;18.50;46.70
41628;DHT22;27321;50.816;6.054;2023-04-30T16:38:21;18.50;47.40
41628;DHT22;27321;50.816;6.054;2023-04-30T16:41:22;18.50;47.30
41628;DHT22;27321;50.816;6.054;2023-04-30T16:44:24;18.60;46.70
41628;DHT22;27321;50.816;6.054;2023-04-30T16:47:25;18.60;46.60
41628;DHT22;27321;50.816;6.054;2023-04-30T16:50:26;18.60;46.50
41628;DHT22;27321;50.816;6.054;2023-04-30T16:53:27;18.60;47.10
41628;DHT22;27321;50.816;6.054;2023-04-30T16:56:28;18.60;47.10
41628;DHT22;27321;50.816;6.054;2023-04-30T16:59:29;18.70;46.80
41628;DHT22;27321;50.816;6.054;2023-04-30T17:02:30;18.70;46.20
41628;DHT22;27321;50.816;6.054;2023-04-30T17:05:31;18.60;45.90
41628;DHT22;27321;50.816;6.054;2023-04-30T17:08:33;18.50;46.60
41628;DHT22;27321;50.816;6.054;2023-04-30T17:11:34;18.50;47.10
41628;DHT22;27321;50.816;6.054;2023-04-30T17:14:36;18.50;46.60
41628;DHT22;27321;50.816;6.054;2023-04-30T17:17:37;18.40;46.80
41628;DHT22;27321;50.816;6.054;2023-04-30T17:20:38;18.30;46.90
41628;DHT22;27321;50.816;6.054;2023-04-30T17:23:39;18.30;47.90
41628;DHT22;27321;50.816;6.054;2023-04-30T17:26:40;18.20;48.10
41628;DHT22;27321;50.816;6.054;2023-04-30T17:29:41;18.20;48.30
41628;DHT22;27321;50.816;6.054;2023-04-30T17:32:42;18.20;48.90
41628;DHT22;27321;50.816;6.054;2023-04-30T17:35:43;18.10;48.80
41628;DHT22;27321;50.816;6.054;2023-04-30T17:38:44;18.10;49.00
41628;DHT22;27321;50.816;6.054;2023-04-30T17:41:46;18.10;49.40
41628;DHT22;27321;50.816;6.054;2023-04-30T17:44:48;18.10;49.70
41628;DHT22;27321;50.816;6.054;2023-04-30T17:47:49;18.10;49.00
41628;DHT22;27321;50.816;6.054;2023-04-30T17:50:50;17.90;48.00
41628;DHT22;27321;50.816;6.054;2023-04-30T17:53:51;17.90;49.00
41628;DHT22;27321;50.816;6.054;2023-04-30T17:56:53;17.90;49.40
41628;DHT22;27321;50.816;6.054;2023-04-30T17:59:54;17.70;49.30
41628;DHT22;27321;50.816;6.054;2023-04-30T18:02:55;17.60;49.80
41628;DHT22;27321;50.816;6.054;2023-04-30T18:05:56;17.60;50.20
41628;DHT22;27321;50.816;6.054;2023-04-30T18:08:57;17.60;50.00
41628;DHT22;27321;50.816;6.054;2023-04-30T18:12:00;17.50;50.30
41628;DHT22;27321;50.816;6.054;2023-04-30T18:15:01;17.50;49.90
41628;DHT22;27321;50.816;6.054;2023-04-30T18:18:05;17.40;50.10
41628;DHT22;27321;50.816;6.054;2023-04-30T18:21:06;17.40;50.00
41628;DHT22;27321;50.816;6.054;2023-04-30T18:24:08;17.30;50.00
41628;DHT22;27321;50.816;6.054;2023-04-30T18:27:09;17.30;50.30
41628;DHT22;27321;50.816;6.054;2023-04-30T18:30:10;17.30;50.30
41628;DHT22;27321;50.816;6.054;2023-04-30T18:33:12;17.20;50.70
41628;DHT22;27321;50.816;6.054;2023-04-30T18:36:13;17.20;50.90
41628;DHT22;27321;50.816;6.054;2023-04-30T18:39:14;17.20;51.00
41628;DHT22;27321;50.816;6.054;2023-04-30T18:42:15;17.10;51.20
41628;DHT22;27321;50.816;6.054;2023-04-30T18:45:16;17.00;51.40
41628;DHT22;27321;50.816;6.054;2023-04-30T18:48:18;17.00;51.60
41628;DHT22;27321;50.816;6.054;2023-04-30T18:51:19;16.80;51.80
41628;DHT22;27321;50.816;6.054;2023-04-30T18:54:20;16.80;52.10
41628;DHT22;27321;50.816;6.054;2023-04-30T18:57:21;16.80;52.30
41628;DHT22;27321;50.816;6.054;2023-04-30T19:00:22;16.70;52.40
41628;DHT22;27321;50.816;6.054;2023-04-30T19:03:23;16.60;52.50
41628;DHT22;27321;50.816;6.054;2023-04-30T19:06:24;16.60;52.60
41628;DHT22;27321;50.816;6.054;2023-04-30T19:09:26;16.60;52.80
41628;DHT22;27321;50.816;6.054;2023-04-30T19:12:27;16.50;52.90
41628;DHT22;27321;50.816;6.054;2023-04-30T19:15:28;16.50;53.00
41628;DHT22;27321;50.816;6.054;2023-04-30T19:18:30;16.40;53.10
41628;DHT22;27321;50.816;6.054;2023-04-30T19:21:31;16.30;53.00
41628;DHT22;27321;50.816;6.054;2023-04-30T19:24:34;16.30;53.30
41628;DHT22;27321;50.816;6.054;2023-04-30T19:27:35;16.20;52.90
41628;DHT22;27321;50.816;6.054;2023-04-30T19:30:36;16.20;52.90
41628;DHT22;27321;50.816;6.054;2023-04-30T19:33:37;16.10;52.60
41628;DHT22;27321;50.816;6.054;2023-04-30T19:36:40;16.10;52.70
41628;DHT22;27321;50.816;6.054;2023-04-30T19:39:43;16.10;52.80